Time;durP1;ratioP1;P1;durP2;ratioP2;P2;SDS_P1;SDS_P2;PMS_P1;PMS_P2;Temp;Humidity;BMP_temperature;BMP_pressure;BME280_temperature;BME280_humidity;BME280_pressure;Samples;Min_cycle;Max_cycle;Signal;HPM_P1;HPM_P2
2023/07/30 00:01:57;;;;;;;0.40;0.40;;;15.40;99.90;;;;;;5011121;28;20064;-70
2023/07/30 00:04:23;;;;;;;0.40;0.40;;;;;;;;;;4989476;28;20463;-70
2023/07/30 00:06:49;;;;;;;1.00;0.75;;;;;;;;;;5009861;28;20038;-70
2023/07/30 00:09:15;;;;;;;0.30;0.30;;;15.40;99.90;;;;;;5008505;28;20045;-70
2023/07/30 00:11:41;;;;;;;0.30;0.30;;;;;;;;;;4988961;28;20144;-70
2023/07/30 00:14:07;;;;;;;0.47;0.47;;;;;;;;;;4991951;28;20049;-70
2023/07/30 00:16:33;;;;;;;0.40;0.40;;;;;;;;;;4996503;28;20037;-70
2023/07/30 00:18:59;;;;;;;0.40;0.40;;;;;;;;;;5009096;28;20044;-70
2023/07/30 00:21:25;;;;;;;0.35;0.35;;;15.40;99.90;;;;;;5007201;28;20120;-70
2023/07/30 00:23:51;;;;;;;0.63;0.60;;;;;;;;;;5006517;28;20132;-70
2023/07/30 00:26:17;;;;;;;0.60;0.60;;;15.20;99.90;;;;;;5009221;28;20063;-70
2023/07/30 00:28:43;;;;;;;0.43;0.43;;;;;;;;;;5009379;28;20493;-70
2023/07/30 00:31:09;;;;;;;0.40;0.40;;;;;;;;;;4992420;28;20041;-70
2023/07/30 00:33:35;;;;;;;1.20;0.75;;;;;;;;;;5007496;28;20183;-70
2023/07/30 00:36:01;;;;;;;0.57;0.57;;;15.20;99.90;;;;;;5010023;28;20106;-70
2023/07/30 00:38:27;;;;;;;0.50;0.50;;;;;;;;;;5012780;28;20587;-70
2023/07/30 00:40:53;;;;;;;0.30;0.30;;;;;;;;;;5012936;28;20041;-70
2023/07/30 00:43:19;;;;;;;1.27;1.17;;;15.00;99.90;;;;;;5007299;28;20099;-70
2023/07/30 00:45:45;;;;;;;0.60;0.60;;;15.10;99.90;;;;;;5009558;28;20140;-70
2023/07/30 00:48:11;;;;;;;0.60;0.60;;;;;;;;;;5011968;28;20634;-70
2023/07/30 00:50:38;;;;;;;0.50;0.50;;;;;;;;;;5009773;28;20132;-70
2023/07/30 00:53:04;;;;;;;0.50;0.50;;;;;;;;;;5008934;28;20037;-70
2023/07/30 00:55:31;;;;;;;0.82;0.82;;;;;;;;;;5003489;28;20042;-71
2023/07/30 00:57:58;;;;;;;0.40;0.40;;;;;;;;;;5010917;28;20103;-70
2023/07/30 01:00:24;;;;;;;0.20;0.20;;;;;;;;;;5014881;28;20091;-68
2023/07/30 01:02:51;;;;;;;0.30;0.30;;;;;;;;;;4989723;28;20068;-70
2023/07/30 01:05:18;;;;;;;0.30;0.30;;;;;;;;;;5004067;28;20379;-70
2023/07/30 01:07:44;;;;;;;0.40;0.40;;;;;;;;;;5003987;28;20049;-70
2023/07/30 01:10:10;;;;;;;0.38;0.38;;;;;;;;;;5001650;28;20455;-70
2023/07/30 01:12:36;;;;;;;0.45;0.45;;;;;;;;;;5005070;28;20041;-70
2023/07/30 01:15:03;;;;;;;0.30;0.30;;;;;;;;;;5010164;28;20062;-70
2023/07/30 01:17:29;;;;;;;0.30;0.30;;;;;;;;;;5009587;28;20040;-71
2023/07/30 01:19:55;;;;;;;0.50;0.50;;;;;;;;;;5009844;28;20053;-70
2023/07/30 01:22:22;;;;;;;0.40;0.40;;;;;;;;;;4996596;28;20034;-68
2023/07/30 01:24:49;;;;;;;0.50;0.50;;;;;;;;;;4994122;28;20408;-70
2023/07/30 01:27:17;;;;;;;0.40;0.40;;;;;;;;;;4991453;28;20052;-69
2023/07/30 01:29:43;;;;;;;;;;;;;;;;;;5009062;28;20037;-70
2023/07/30 01:32:12;;;;;;;0.88;0.88;;;;;;;;;;5010921;28;19924;-70
2023/07/30 01:34:39;;;;;;;0.38;0.38;;;;;;;;;;5010787;28;20046;-71
2023/07/30 01:37:06;;;;;;;0.47;0.47;;;;;;;;;;5008671;28;20128;-70
2023/07/30 01:39:33;;;;;;;0.35;0.35;;;14.60;99.90;;;;;;5010759;28;20052;-70
2023/07/30 01:41:59;;;;;;;0.40;0.40;;;;;;;;;;4993655;28;20037;-70
2023/07/30 01:44:25;;;;;;;0.40;0.40;;;;;;;;;;5019468;28;20037;-70
2023/07/30 01:46:51;;;;;;;0.50;0.50;;;;;;;;;;5006885;28;20041;-70
2023/07/30 01:49:17;;;;;;;0.25;0.25;;;14.60;99.90;;;;;;5009841;28;20038;-70
2023/07/30 01:51:43;;;;;;;0.30;0.30;;;;;;;;;;4990718;28;20500;-70
2023/07/30 01:54:09;;;;;;;0.30;0.30;;;;;;;;;;5023821;28;20044;-70
2023/07/30 01:56:35;;;;;;;0.32;0.32;;;;;;;;;;5007939;28;20058;-70
2023/07/30 01:59:02;;;;;;;0.47;0.47;;;;;;;;;;5009923;28;20041;-70
2023/07/30 02:01:28;;;;;;;0.50;0.50;;;;;;;;;;4993873;28;20033;-70
2023/07/30 02:03:54;;;;;;;0.40;0.40;;;;;;;;;;5008875;28;20049;-70
2023/07/30 02:06:20;;;;;;;0.60;0.60;;;;;;;;;;5004837;28;20041;-70
2023/07/30 02:08:46;;;;;;;0.30;0.30;;;;;;;;;;5008377;28;20038;-70
2023/07/30 02:11:12;;;;;;;0.50;0.50;;;;;;;;;;4995528;28;20045;-70
2023/07/30 02:13:38;;;;;;;0.32;0.32;;;;;;;;;;5007131;28;20144;-70
2023/07/30 02:16:04;;;;;;;0.68;0.68;;;;;;;;;;5008565;28;20063;-70
2023/07/30 02:18:30;;;;;;;0.93;0.93;;;;;;;;;;5009035;28;20262;-70
2023/07/30 02:20:56;;;;;;;0.40;0.40;;;;;;;;;;5010798;28;20053;-70
2023/07/30 02:23:23;;;;;;;0.40;0.40;;;;;;;;;;5005011;28;20041;-70
2023/07/30 02:25:49;;;;;;;0.45;0.45;;;;;;;;;;5008220;28;20037;-70
2023/07/30 02:28:15;;;;;;;0.70;0.70;;;;;;;;;;5006552;28;20033;-70
2023/07/30 02:30:41;;;;;;;0.50;0.50;;;;;;;;;;4988350;28;20061;-70
2023/07/30 02:33:07;;;;;;;0.22;0.22;;;;;;;;;;5010136;28;20076;-71
2023/07/30 02:35:33;;;;;;;0.60;0.60;;;;;;;;;;5008681;28;20045;-71
2023/07/30 02:37:59;;;;;;;1.33;0.70;;;;;;;;;;5006283;28;20121;-70
2023/07/30 02:40:25;;;;;;;0.45;0.45;;;;;;;;;;5004068;28;20049;-70
2023/07/30 02:42:51;;;;;;;1.48;0.70;;;;;;;;;;5009465;28;20029;-70
2023/07/30 02:45:17;;;;;;;0.43;0.43;;;;;;;;;;5009980;28;20037;-70
2023/07/30 02:47:44;;;;;;;0.75;0.75;;;;;;;;;;5013143;28;20030;-70
2023/07/30 02:50:10;;;;;;;0.40;0.40;;;;;;;;;;5008094;28;20033;-70
2023/07/30 02:52:39;;;;;;;0.45;0.45;;;;;;;;;;5005830;28;20041;-70
2023/07/30 02:55:06;;;;;;;0.50;0.50;;;;;;;;;;5015374;28;20045;-70
2023/07/30 02:57:32;;;;;;;0.38;0.38;;;;;;;;;;5004539;28;20068;-70
2023/07/30 02:59:58;;;;;;;0.40;0.40;;;;;;;;;;5007115;28;20065;-70
2023/07/30 03:02:24;;;;;;;0.50;0.50;;;;;;;;;;5008110;28;20034;-70
2023/07/30 03:04:50;;;;;;;0.50;0.50;;;;;;;;;;4994009;28;20046;-71
2023/07/30 03:07:18;;;;;;;0.63;0.63;;;;;;;;;;5009344;28;20098;-70
2023/07/30 03:09:44;;;;;;;1.38;1.27;;;;;;;;;;5009766;28;20538;-70
2023/07/30 03:12:10;;;;;;;1.08;0.93;;;;;;;;;;5010059;28;20033;-70
2023/07/30 03:14:36;;;;;;;0.52;0.52;;;;;;;;;;5006000;28;20048;-70
2023/07/30 03:17:04;;;;;;;0.63;0.63;;;;;;;;;;4979819;28;20132;-70
2023/07/30 03:19:31;;;;;;;0.50;0.50;;;;;;;;;;4989685;28;20477;-70
2023/07/30 03:21:57;;;;;;;0.95;0.95;;;;;;;;;;5007306;28;20029;-70
2023/07/30 03:24:23;;;;;;;2.08;1.15;;;;;;;;;;5008601;28;20511;-70
2023/07/30 03:26:49;;;;;;;0.30;0.30;;;;;;;;;;5009117;28;20037;-71
2023/07/30 03:29:16;;;;;;;0.50;0.50;;;;;;;;;;5003442;28;20038;-70
2023/07/30 03:31:42;;;;;;;1.20;0.77;;;;;;;;;;5022241;28;20056;-70
2023/07/30 03:34:08;;;;;;;0.40;0.40;;;14.50;99.90;;;;;;5010164;28;20041;-70
2023/07/30 03:36:34;;;;;;;0.30;0.30;;;;;;;;;;5009600;28;20053;-71
2023/07/30 03:39:00;;;;;;;0.47;0.47;;;;;;;;;;4990951;28;20033;-70
2023/07/30 03:41:26;;;;;;;1.05;0.80;;;;;;;;;;5010003;28;20053;-70
2023/07/30 03:43:52;;;;;;;0.50;0.50;;;;;;;;;;5002848;28;20042;-71
2023/07/30 03:46:20;;;;;;;0.40;0.40;;;;;;;;;;4999527;28;20059;-70
2023/07/30 03:48:46;;;;;;;0.40;0.40;;;;;;;;;;4989713;28;20033;-70
2023/07/30 03:51:12;;;;;;;1.30;1.20;;;;;;;;;;5009522;28;20048;-71
2023/07/30 03:53:38;;;;;;;0.93;0.82;;;;;;;;;;5006978;28;20179;-70
2023/07/30 03:56:04;;;;;;;0.75;0.75;;;;;;;;;;5008262;28;20079;-70
2023/07/30 03:58:31;;;;;;;0.55;0.40;;;;;;;;;;5007046;28;20136;-70
2023/07/30 04:00:57;;;;;;;0.73;0.73;;;;;;;;;;5002535;28;20041;-70
2023/07/30 04:03:23;;;;;;;0.55;0.55;;;;;;;;;;4991688;28;20080;-70
2023/07/30 04:05:49;;;;;;;0.63;0.63;;;;;;;;;;5009102;28;20045;-70
2023/07/30 04:08:16;;;;;;;0.50;0.50;;;;;;;;;;5007384;28;20044;-70
2023/07/30 04:10:42;;;;;;;0.38;0.38;;;;;;;;;;4994092;28;20114;-70
2023/07/30 04:13:08;;;;;;;0.40;0.40;;;;;;;;;;5007012;28;20049;-70
2023/07/30 04:15:35;;;;;;;0.50;0.50;;;;;;;;;;4986834;28;20477;-70
2023/07/30 04:18:01;;;;;;;0.32;0.32;;;;;;;;;;5004702;28;20061;-70
2023/07/30 04:20:27;;;;;;;0.60;0.50;;;;;;;;;;5007962;28;20080;-70
2023/07/30 04:22:53;;;;;;;0.47;0.47;;;;;;;;;;4991731;28;20061;-70
2023/07/30 04:25:19;;;;;;;0.30;0.30;;;;;;;;;;5001922;28;20029;-70
2023/07/30 04:27:45;;;;;;;0.80;0.80;;;;;;;;;;4984638;28;20034;-70
2023/07/30 04:30:12;;;;;;;0.75;0.75;;;;;;;;;;5008913;28;20137;-70
2023/07/30 04:32:38;;;;;;;0.30;0.30;;;;;;;;;;5008103;28;20045;-70
2023/07/30 04:35:04;;;;;;;0.32;0.32;;;;;;;;;;5002550;28;20045;-70
2023/07/30 04:37:30;;;;;;;0.40;0.40;;;;;;;;;;5007135;28;20119;-70
2023/07/30 04:39:57;;;;;;;1.42;0.80;;;;;;;;;;5008250;28;20183;-70
2023/07/30 04:42:23;;;;;;;0.40;0.40;;;;;;;;;;4999385;28;20033;-70
2023/07/30 04:44:49;;;;;;;0.82;0.82;;;;;;;;;;4990629;28;20120;-70
2023/07/30 04:47:15;;;;;;;0.30;0.30;;;;;;;;;;4992683;28;20124;-70
2023/07/30 04:49:42;;;;;;;0.43;0.43;;;;;;;;;;5003629;28;20091;-70
2023/07/30 04:52:08;;;;;;;0.60;0.60;;;;;;;;;;5000792;28;20099;-70
2023/07/30 04:54:36;;;;;;;0.30;0.30;;;;;;;;;;5004373;28;20042;-70
2023/07/30 04:57:02;;;;;;;0.30;0.30;;;;;;;;;;5012447;28;20060;-70
2023/07/30 04:59:29;;;;;;;0.50;0.50;;;;;;;;;;5006888;28;20123;-70
2023/07/30 05:01:55;;;;;;;0.75;0.75;;;;;;;;;;5004303;28;20194;-71
2023/07/30 05:04:21;;;;;;;0.50;0.50;;;;;;;;;;5006274;28;20045;-71
2023/07/30 05:06:47;;;;;;;0.43;0.43;;;;;;;;;;5000940;28;20401;-71
2023/07/30 05:09:13;;;;;;;0.70;0.70;;;;;;;;;;5006771;28;20033;-70
2023/07/30 05:11:39;;;;;;;0.50;0.50;;;;;;;;;;5007075;28;20041;-70
2023/07/30 05:14:06;;;;;;;0.50;0.50;;;;;;;;;;5006028;28;20527;-71
2023/07/30 05:16:32;;;;;;;0.70;0.70;;;;;;;;;;4990550;28;20038;-70
2023/07/30 05:18:58;;;;;;;0.50;0.50;;;;;;;;;;5007364;28;20052;-70
2023/07/30 05:21:23;;;;;;;0.50;0.50;;;14.90;99.90;;;;;;5008803;28;20072;-70
2023/07/30 05:23:51;;;;;;;0.50;0.50;;;;;;;;;;5008159;28;20042;-70
2023/07/30 05:26:17;;;;;;;0.83;0.83;;;;;;;;;;5021278;28;20034;-71
2023/07/30 05:28:43;;;;;;;0.30;0.30;;;;;;;;;;5005913;28;20065;-71
2023/07/30 05:31:09;;;;;;;0.70;0.70;;;;;;;;;;5006446;28;20709;-70
2023/07/30 05:33:35;;;;;;;0.30;0.30;;;;;;;;;;5012892;28;20531;-70
2023/07/30 05:36:01;;;;;;;0.57;0.57;;;;;;;;;;5011291;28;20142;-71
2023/07/30 05:38:27;;;;;;;0.45;0.45;;;;;;;;;;4993463;28;20046;-72
2023/07/30 05:40:53;;;;;;;0.40;0.40;;;;;;;;;;5009606;28;20259;-72
2023/07/30 05:43:19;;;;;;;0.60;0.60;;;;;;;;;;5008350;28;20047;-72
2023/07/30 05:45:45;;;;;;;0.60;0.60;;;;;;;;;;4993095;28;20029;-73
2023/07/30 05:48:11;;;;;;;0.70;0.70;;;;;;;;;;5009140;28;20531;-72
2023/07/30 05:50:37;;;;;;;0.35;0.35;;;;;;;;;;5010484;28;20044;-72
2023/07/30 05:53:03;;;;;;;0.47;0.47;;;;;;;;;;5015631;28;20493;-72
2023/07/30 05:55:30;;;;;;;0.45;0.45;;;;;;;;;;5008477;28;20128;-72
2023/07/30 05:57:56;;;;;;;8.98;1.25;;;;;;;;;;5009227;28;20042;-72
2023/07/30 06:00:22;;;;;;;0.65;0.65;;;;;;;;;;5006470;28;20144;-72
2023/07/30 06:02:48;;;;;;;1.05;1.05;;;;;;;;;;5002522;28;20037;-72
2023/07/30 06:05:14;;;;;;;0.70;0.70;;;;;;;;;;5008180;28;20496;-72
2023/07/30 06:07:40;;;;;;;0.60;0.60;;;;;;;;;;5010354;28;20505;-72
2023/07/30 06:10:06;;;;;;;0.75;0.75;;;;;;;;;;5015360;28;20911;-72
2023/07/30 06:12:32;;;;;;;0.50;0.50;;;;;;;;;;4991200;28;21666;-72
2023/07/30 06:14:58;;;;;;;0.80;0.80;;;;;;;;;;5012257;28;20481;-72
2023/07/30 06:17:25;;;;;;;0.40;0.40;;;;;;;;;;5002640;28;20037;-75
2023/07/30 06:23:13;;;;;;;3.55;1.05;;;;;;;;;;5024841;28;20059;-73
2023/07/30 06:25:39;;;;;;;2.25;1.08;;;;;;;;;;5007214;28;20474;-73
2023/07/30 06:28:08;;;;;;;0.40;0.40;;;16.00;99.90;;;;;;5002933;28;20041;-72
2023/07/30 06:30:36;;;;;;;0.47;0.47;;;;;;;;;;5008348;28;20051;-73
2023/07/30 06:33:02;;;;;;;0.20;0.20;;;;;;;;;;5005521;28;20045;-72
2023/07/30 06:35:28;;;;;;;0.90;0.90;;;;;;;;;;5002905;28;20046;-72
2023/07/30 06:37:54;;;;;;;0.50;0.50;;;;;;;;;;5007425;28;20045;-73
2023/07/30 06:40:20;;;;;;;0.70;0.70;;;;;;;;;;4991677;28;20037;-73
2023/07/30 06:42:46;;;;;;;0.40;0.40;;;16.60;99.90;;;;;;5007988;28;20128;-73
2023/07/30 06:45:12;;;;;;;0.73;0.60;;;;;;;;;;5005093;28;20393;-73
2023/07/30 06:47:38;;;;;;;0.57;0.57;;;;;;;;;;4987709;28;20702;-73
2023/07/30 06:50:08;;;;;;;0.60;0.60;;;16.50;99.90;;;;;;4990887;28;20041;-73
2023/07/30 06:52:34;;;;;;;0.47;0.47;;;;;;;;;;5008281;28;20566;-72
2023/07/30 06:55:00;;;;;;;0.85;0.85;;;;;;;;;;5005621;28;20041;-73
2023/07/30 06:57:27;;;;;;;1.60;1.50;;;;;;;;;;5004482;28;20081;-72
2023/07/30 06:59:53;;;;;;;3.85;1.25;;;;;;;;;;5005362;28;20501;-73
2023/07/30 07:02:19;;;;;;;0.73;0.45;;;;;;;;;;5001827;28;20045;-72
2023/07/30 07:04:46;;;;;;;0.65;0.65;;;;;;;;;;5002713;28;20037;-73
2023/07/30 07:07:12;;;;;;;2.67;0.50;;;;;;;;;;4989924;28;20084;-73
2023/07/30 07:09:38;;;;;;;0.60;0.60;;;;;;;;;;5005564;28;20169;-73
2023/07/30 07:12:04;;;;;;;0.60;0.60;;;;;;;;;;5008308;28;20045;-72
2023/07/30 07:14:30;;;;;;;0.57;0.57;;;;;;;;;;4989250;28;20409;-73
2023/07/30 07:16:56;;;;;;;0.60;0.60;;;;;;;;;;5008077;28;20125;-73
2023/07/30 07:19:22;;;;;;;0.82;0.82;;;17.40;99.90;;;;;;5002330;28;20073;-74
2023/07/30 07:21:48;;;;;;;0.40;0.40;;;;;;;;;;5008819;28;20520;-70
2023/07/30 07:24:14;;;;;;;0.90;0.90;;;;;;;;;;5009512;28;20041;-70
2023/07/30 07:26:40;;;;;;;0.30;0.30;;;;;;;;;;5010899;28;20041;-70
2023/07/30 07:29:06;;;;;;;0.77;0.77;;;17.80;99.90;;;;;;5008910;28;20125;-70
2023/07/30 07:31:32;;;;;;;0.40;0.40;;;;;;;;;;4991521;28;20545;-70
2023/07/30 07:33:58;;;;;;;0.80;0.80;;;;;;;;;;5007118;28;20052;-70
2023/07/30 07:36:24;;;;;;;0.40;0.40;;;;;;;;;;5006189;28;20052;-70
2023/07/30 07:38:49;;;;;;;0.40;0.40;;;18.10;99.90;;;;;;5013568;28;20135;-70
2023/07/30 07:41:16;;;;;;;0.40;0.40;;;;;;;;;;5007717;28;20241;-71
2023/07/30 07:43:46;;;;;;;3.15;0.85;;;18.40;99.90;;;;;;5003117;28;20041;-71
2023/07/30 07:46:15;;;;;;;0.40;0.40;;;18.50;99.90;;;;;;5004276;28;20033;-71
2023/07/30 07:48:41;;;;;;;0.70;0.70;;;;;;;;;;5006090;28;20037;-71
2023/07/30 07:51:07;;;;;;;0.40;0.40;;;;;;;;;;5007028;28;20456;-70
2023/07/30 07:53:34;;;;;;;0.68;0.68;;;;;;;;;;4999501;28;20049;-70
2023/07/30 07:55:59;;;;;;;0.73;0.73;;;19.30;99.90;;;;;;4989844;28;20416;-71
2023/07/30 07:58:25;;;;;;;0.73;0.73;;;;;;;;;;5004764;28;20128;-70
2023/07/30 08:00:57;;;;;;;0.65;0.65;;;19.40;99.90;;;;;;5004751;28;20048;-70
2023/07/30 08:03:24;;;;;;;0.35;0.35;;;19.30;99.90;;;;;;5006160;28;20519;-71
2023/07/30 08:05:50;;;;;;;2.65;1.27;;;19.40;99.90;;;;;;4999342;28;20038;-70
2023/07/30 08:08:16;;;;;;;2.20;0.80;;;19.50;99.90;;;;;;4986199;28;20142;-71
2023/07/30 08:10:43;;;;;;;0.90;0.90;;;;;;;;;;5004023;28;20677;-70
2023/07/30 08:13:13;;;;;;;1.83;1.73;;;19.90;99.90;;;;;;5007290;28;20500;-70
2023/07/30 08:15:39;;;;;;;0.50;0.50;;;;;;;;;;4989895;28;20064;-70
2023/07/30 08:18:05;;;;;;;1.27;0.90;;;20.40;99.90;;;;;;5004308;28;20038;-70
2023/07/30 08:20:31;;;;;;;0.60;0.60;;;;;;;;;;5001075;28;20151;-70
2023/07/30 08:22:57;;;;;;;0.63;0.63;;;20.60;99.90;;;;;;4998659;28;20048;-72
2023/07/30 08:25:22;;;;;;;1.08;1.08;;;21.00;99.90;;;;;;5003644;28;20041;-71
2023/07/30 08:27:48;;;;;;;0.38;0.38;;;20.70;99.90;;;;;;5005733;28;20041;-70
2023/07/30 08:30:14;;;;;;;2.03;1.90;;;20.90;99.90;;;;;;5005656;28;20041;-74
2023/07/30 08:32:41;;;;;;;0.73;0.73;;;20.90;99.90;;;;;;5007537;28;20048;-71
2023/07/30 08:35:07;;;;;;;0.80;0.80;;;21.10;99.90;;;;;;5010267;28;20053;-72
2023/07/30 08:37:33;;;;;;;0.85;0.85;;;21.30;99.90;;;;;;5009937;28;20037;-72
2023/07/30 08:39:59;;;;;;;0.90;0.77;;;21.30;99.90;;;;;;5007289;28;20040;-72
2023/07/30 08:42:24;;;;;;;0.90;0.90;;;21.40;99.90;;;;;;5010040;28;20044;-72
2023/07/30 08:44:50;;;;;;;4.35;1.45;;;21.00;99.90;;;;;;5010081;28;20041;-72
2023/07/30 08:47:16;;;;;;;0.98;0.98;;;20.90;99.90;;;;;;5008148;28;20057;-72
2023/07/30 08:49:41;;;;;;;0.43;0.43;;;21.10;99.90;;;;;;5009331;28;20053;-74
2023/07/30 08:52:09;;;;;;;1.10;0.90;;;20.70;99.90;;;;;;5007840;28;20043;-72
2023/07/30 08:54:36;;;;;;;;;;;20.90;99.90;;;;;;5000449;28;20152;-72
2023/07/30 08:57:03;;;;;;;0.55;0.55;;;20.80;99.90;;;;;;4994829;28;19920;-72
2023/07/30 08:59:42;;;;;;;0.88;0.65;;;20.60;99.90;;;;;;4993137;28;20127;-72
2023/07/30 09:02:17;;;;;;;0.50;0.50;;;20.60;99.90;;;;;;5010103;28;20124;-72
2023/07/30 09:04:48;;;;;;;0.47;0.47;;;20.30;99.90;;;;;;5012500;28;20046;-72
2023/07/30 09:07:13;;;;;;;0.43;0.43;;;20.60;99.90;;;;;;5012641;28;20497;-72
2023/07/30 09:09:40;;;;;;;0.40;0.40;;;20.30;99.90;;;;;;5012735;28;20130;-71
2023/07/30 09:12:14;;;;;;;0.50;0.50;;;19.90;99.90;;;;;;4993644;28;20042;-72
2023/07/30 09:14:44;;;;;;;0.40;0.40;;;;;;;;;;5009215;28;20629;-72
2023/07/30 09:17:11;;;;;;;0.50;0.50;;;19.50;99.90;;;;;;5003721;28;20052;-73
2023/07/30 09:19:37;;;;;;;0.47;0.47;;;;;;;;;;5007181;28;20084;-73
2023/07/30 09:22:06;;;;;;;0.40;0.40;;;19.30;99.90;;;;;;4992763;28;20041;-73
2023/07/30 09:24:32;;;;;;;0.50;0.50;;;18.80;99.90;;;;;;4991937;28;20481;-73
2023/07/30 09:27:02;;;;;;;0.50;0.50;;;19.10;99.90;;;;;;4990867;28;20037;-74
2023/07/30 09:29:28;;;;;;;0.30;0.30;;;18.70;99.90;;;;;;5005736;28;20080;-74
2023/07/30 09:31:55;;;;;;;0.30;0.30;;;18.40;99.90;;;;;;4986976;28;20112;-73
2023/07/30 09:34:22;;;;;;;0.38;0.38;;;;;;;;;;5009187;28;20044;-73
2023/07/30 09:36:51;;;;;;;0.30;0.30;;;18.40;99.90;;;;;;4994348;28;20551;-73
2023/07/30 09:39:22;;;;;;;5.93;1.05;;;18.30;99.90;;;;;;5012781;28;20045;-73
2023/07/30 09:41:50;;;;;;;0.38;0.38;;;18.00;99.90;;;;;;5003985;28;20493;-72
2023/07/30 09:44:17;;;;;;;;;;;18.20;99.90;;;;;;5006342;28;20124;-73
2023/07/30 09:46:44;;;;;;;0.30;0.30;;;;;;;;;;5005411;28;19927;-72
2023/07/30 09:49:11;;;;;;;0.40;0.40;;;;;;;;;;5008835;28;20136;-73
2023/07/30 09:51:40;;;;;;;0.50;0.47;;;;;;;;;;4986603;28;20144;-73
2023/07/30 09:54:11;;;;;;;0.38;0.38;;;18.10;99.90;;;;;;5006934;28;20052;-73
2023/07/30 09:56:38;;;;;;;0.30;0.30;;;18.10;99.90;;;;;;4986038;28;20065;-73
2023/07/30 09:59:07;;;;;;;0.38;0.38;;;;;;;;;;5000844;28;20046;-73
2023/07/30 10:01:38;;;;;;;0.30;0.30;;;17.70;99.90;;;;;;5002460;28;20062;-73
2023/07/30 10:04:07;;;;;;;0.57;0.57;;;;;;;;;;5000906;28;20033;-73
2023/07/30 10:06:36;;;;;;;0.40;0.40;;;;;;;;;;5003999;28;20034;-73
2023/07/30 10:09:02;;;;;;;0.50;0.50;;;;;;;;;;4985972;28;20760;-73
2023/07/30 10:11:29;;;;;;;0.47;0.47;;;;;;;;;;5001506;28;20037;-72
2023/07/30 10:13:56;;;;;;;0.40;0.40;;;;;;;;;;5020828;28;20042;-72
2023/07/30 10:16:27;;;;;;;0.73;0.73;;;16.90;99.90;;;;;;5003261;28;20045;-72
2023/07/30 10:18:56;;;;;;;0.73;0.73;;;;;;;;;;5004383;28;20486;-71
2023/07/30 10:21:23;;;;;;;0.40;0.40;;;;;;;;;;5005108;28;20034;-73
2023/07/30 10:24:05;;;;;;;0.50;0.50;;;;;;;;;;5002690;28;20045;-72
2023/07/30 10:26:33;;;;;;;0.52;0.52;;;;;;;;;;5001791;28;20126;-72
2023/07/30 10:28:59;;;;;;;;;;;;;;;;;;4993573;28;21583;-74
2023/07/30 10:31:38;;;;;;;0.65;0.65;;;;;;;;;;5005065;28;19963;-72
2023/07/30 10:34:07;;;;;;;0.60;0.60;;;;;;;;;;5001131;28;20460;-70
2023/07/30 10:36:34;;;;;;;0.50;0.50;;;;;;;;;;5003363;28;20046;-70
2023/07/30 10:39:17;;;;;;;0.43;0.43;;;;;;;;;;5001859;28;20034;-70
2023/07/30 10:41:44;;;;;;;0.40;0.40;;;;;;;;;;4998321;28;20107;-70
2023/07/30 10:44:18;;;;;;;0.40;0.40;;;;;;;;;;5006025;28;20057;-70
2023/07/30 10:46:44;;;;;;;0.80;0.80;;;;;;;;;;5002638;28;20117;-70
2023/07/30 10:49:12;;;;;;;0.65;0.65;;;;;;;;;;5000729;28;20084;-70
2023/07/30 10:51:38;;;;;;;0.35;0.35;;;;;;;;;;5001159;28;20587;-70
2023/07/30 10:54:07;;;;;;;1.20;1.13;;;;;;;;;;5002313;28;20382;-71
2023/07/30 10:56:35;;;;;;;0.43;0.43;;;;;;;;;;5003932;28;20064;-71
2023/07/30 10:59:04;;;;;;;0.30;0.30;;;;;;;;;;5001082;28;20041;-71
2023/07/30 11:01:30;;;;;;;0.40;0.40;;;;;;;;;;5001863;28;20049;-71
2023/07/30 11:03:56;;;;;;;0.32;0.32;;;;;;;;;;5003193;28;20448;-71
2023/07/30 11:06:26;;;;;;;0.63;0.45;;;19.60;99.90;;;;;;5003977;28;20092;-70
2023/07/30 11:08:53;;;;;;;0.30;0.30;;;;;;;;;;5008579;28;20045;-70
2023/07/30 11:11:19;;;;;;;0.40;0.40;;;20.10;99.90;;;;;;5001639;28;20050;-70
2023/07/30 11:13:47;;;;;;;0.43;0.43;;;20.20;99.90;;;;;;4990803;28;20049;-70
2023/07/30 11:16:14;;;;;;;0.50;0.50;;;20.10;99.90;;;;;;4993785;28;20064;-70
2023/07/30 11:18:41;;;;;;;0.50;0.50;;;20.20;99.90;;;;;;4999390;28;20045;-71
2023/07/30 11:21:11;;;;;;;0.40;0.40;;;20.70;99.90;;;;;;4984363;28;20300;-71
2023/07/30 11:23:41;;;;;;;0.40;0.40;;;20.70;99.90;;;;;;5001333;28;20406;-71
2023/07/30 11:26:13;;;;;;;0.40;0.40;;;20.70;99.90;;;;;;5000737;28;20038;-71
2023/07/30 11:28:40;;;;;;;0.40;0.40;;;;;;;;;;5001409;28;20030;-72
2023/07/30 11:31:19;;;;;;;0.70;0.70;;;20.80;99.90;;;;;;5000900;28;20046;-72
2023/07/30 11:33:46;;;;;;;0.47;0.47;;;20.40;99.90;;;;;;4984449;28;20065;-71
2023/07/30 11:36:15;;;;;;;0.50;0.50;;;20.40;99.90;;;;;;5000771;28;20038;-71
2023/07/30 11:38:42;;;;;;;0.30;0.30;;;20.30;99.90;;;;;;5001134;28;20037;-72
2023/07/30 11:41:11;;;;;;;0.47;0.47;;;20.30;99.90;;;;;;4980074;28;20041;-70
2023/07/30 11:43:42;;;;;;;0.88;0.88;;;20.70;99.90;;;;;;5003633;28;20050;-71
2023/07/30 11:46:11;;;;;;;0.60;0.60;;;20.80;99.90;;;;;;4994218;28;20045;-71
2023/07/30 11:48:37;;;;;;;1.05;0.50;;;21.20;99.90;;;;;;4983966;28;20046;-72
2023/07/30 11:51:03;;;;;;;2.67;1.65;;;21.60;99.90;;;;;;5001360;28;20088;-74
2023/07/30 11:53:49;;;;;;;0.88;0.80;;;21.40;99.90;;;;;;5001869;28;20053;-73
2023/07/30 11:56:24;;;;;;;0.40;0.40;;;21.60;99.90;;;;;;5003840;28;20093;-72
2023/07/30 11:58:51;;;;;;;1.25;1.23;;;21.80;99.90;;;;;;5002225;28;20564;-70
2023/07/30 12:01:18;;;;;;;0.40;0.40;;;22.30;99.90;;;;;;4986289;28;20068;-72
2023/07/30 12:03:44;;;;;;;0.75;0.75;;;22.10;99.90;;;;;;4987014;28;20500;-72
2023/07/30 12:06:11;;;;;;;1.27;0.88;;;22.20;99.90;;;;;;5002449;28;20033;-71
2023/07/30 12:08:37;;;;;;;2.25;2.10;;;22.60;99.90;;;;;;5002280;28;20046;-75
2023/07/30 12:11:08;;;;;;;0.93;0.55;;;22.20;99.90;;;;;;5000761;28;20111;-72
2023/07/30 12:13:34;;;;;;;0.88;0.88;;;22.20;99.90;;;;;;5003509;28;20060;-77
2023/07/30 12:16:00;;;;;;;1.35;1.25;;;22.50;99.90;;;;;;5005218;28;20052;-72
2023/07/30 12:18:27;;;;;;;1.08;0.85;;;22.30;99.90;;;;;;5000223;28;20169;-72
2023/07/30 12:20:54;;;;;;;1.08;1.05;;;22.70;99.90;;;;;;4998516;28;20048;-75
2023/07/30 12:23:20;;;;;;;1.98;0.93;;;22.50;99.90;;;;;;5006174;28;20030;-72
2023/07/30 12:25:46;;;;;;;0.75;0.75;;;22.60;99.90;;;;;;4987363;28;20500;-72
2023/07/30 12:28:13;;;;;;;0.50;0.50;;;22.20;99.90;;;;;;4990859;28;20045;-74
2023/07/30 12:30:39;;;;;;;0.70;0.43;;;21.90;99.90;;;;;;5006194;28;20046;-74
2023/07/30 12:33:06;;;;;;;0.70;0.70;;;21.50;99.90;;;;;;5007163;28;20060;-74
2023/07/30 12:35:33;;;;;;;0.30;0.30;;;21.10;99.90;;;;;;4998830;28;20568;-74
2023/07/30 12:37:59;;;;;;;0.43;0.43;;;20.90;99.90;;;;;;5006951;28;20096;-74
2023/07/30 12:40:26;;;;;;;0.43;0.43;;;21.10;99.90;;;;;;5002343;28;20517;-74
2023/07/30 12:42:52;;;;;;;0.47;0.47;;;;;;;;;;4997466;28;20935;-75
2023/07/30 12:45:18;;;;;;;0.55;0.55;;;20.70;99.90;;;;;;4999585;28;20034;-74
2023/07/30 12:47:45;;;;;;;0.55;0.55;;;21.00;99.90;;;;;;5000868;28;20029;-75
2023/07/30 12:50:11;;;;;;;0.30;0.30;;;21.50;99.90;;;;;;4999053;28;20049;-75
2023/07/30 12:52:36;;;;;;;0.40;0.40;;;21.20;99.90;;;;;;5004852;28;20046;-74
2023/07/30 12:55:04;;;;;;;0.40;0.40;;;21.30;99.90;;;;;;5023023;28;20428;-75
2023/07/30 12:57:30;;;;;;;0.52;0.52;;;21.10;99.90;;;;;;4991892;28;20097;-74
2023/07/30 12:59:56;;;;;;;0.40;0.40;;;21.10;99.90;;;;;;4992178;28;20045;-74
2023/07/30 13:02:22;;;;;;;3.05;1.00;;;21.00;99.90;;;;;;5003017;28;20038;-74
2023/07/30 13:04:47;;;;;;;0.57;0.57;;;21.00;99.90;;;;;;4987718;28;20081;-74
2023/07/30 13:07:13;;;;;;;0.40;0.40;;;20.70;99.90;;;;;;4990646;28;20112;-74
2023/07/30 13:09:39;;;;;;;0.50;0.50;;;20.80;99.90;;;;;;4991288;28;20170;-73
2023/07/30 13:12:05;;;;;;;0.40;0.40;;;20.10;99.90;;;;;;5008588;28;20041;-73
2023/07/30 13:14:31;;;;;;;0.40;0.40;;;19.80;99.90;;;;;;5004071;28;20053;-73
2023/07/30 13:16:57;;;;;;;0.30;0.30;;;19.90;99.90;;;;;;5003052;28;20041;-74
2023/07/30 13:19:23;;;;;;;0.50;0.50;;;;;;;;;;4989208;28;20045;-74
2023/07/30 13:21:48;;;;;;;0.50;0.50;;;19.90;99.90;;;;;;4996913;28;20045;-73
2023/07/30 13:24:14;;;;;;;0.40;0.40;;;19.80;99.90;;;;;;5003633;28;20496;-73
2023/07/30 13:26:40;;;;;;;0.50;0.50;;;19.50;99.90;;;;;;5001485;28;20613;-73
2023/07/30 13:29:06;;;;;;;0.40;0.40;;;19.80;99.90;;;;;;5000897;28;20156;-73
2023/07/30 13:31:31;;;;;;;0.40;0.40;;;19.40;99.90;;;;;;4981553;28;20053;-73
2023/07/30 13:33:57;;;;;;;0.43;0.43;;;19.30;99.90;;;;;;5000746;28;20092;-73
2023/07/30 13:36:23;;;;;;;0.30;0.30;;;19.70;99.90;;;;;;5003991;28;20046;-73
2023/07/30 13:38:48;;;;;;;0.55;0.55;;;19.30;99.90;;;;;;5007916;28;20042;-73
2023/07/30 13:41:14;;;;;;;0.63;0.63;;;19.30;99.90;;;;;;5002851;28;20490;-72
2023/07/30 13:43:40;;;;;;;0.38;0.38;;;19.20;99.90;;;;;;5002336;28;20389;-72
2023/07/30 13:46:06;;;;;;;0.73;0.73;;;19.50;99.90;;;;;;4990056;28;20460;-72
2023/07/30 13:48:31;;;;;;;0.63;0.63;;;19.30;99.90;;;;;;5000272;28;20822;-72
2023/07/30 13:50:57;;;;;;;0.40;0.40;;;;;;;;;;5002756;28;20176;-74
2023/07/30 13:53:23;;;;;;;0.38;0.38;;;19.00;99.90;;;;;;5000041;28;20160;-73
2023/07/30 13:55:49;;;;;;;0.50;0.50;;;;;;;;;;4988020;28;20065;-73
2023/07/30 13:58:15;;;;;;;0.50;0.50;;;19.10;99.90;;;;;;5009178;28;20409;-72